Hamilton, MT (59840)

3:44 AM MDT on August 25, 2016 (GMT -0600)
MesoWest | | Change Station

Elev 5600 ft 46.14 °N, 114.45 °W | Updated 342 days ago

Clear
Clear
46 °F
Feels Like 46 °F
N
3
Wind Variable Wind from SW
Gusts mph

Today
High -- | Low -- °F
--% Chance of Precip.
Yesterday
High -- | Low -- °F
Precip. -- in
Pressure 30.25 in
Visibility 10.0 miles
Clouds Clear
Dew Point 34 °F
Humidity 63%
Rainfall in
Snow Depth Not available.
6:48 AM 8:27 PM
Waning Gibbous, 47% visible
METAR KMSO 250853Z AUTO 10006KT 10SM CLR 12/03 A3028 RMK AO2 SLP244 T01220033 58006
Pressure 30.25 in
Visibility 10.0 miles
Clouds Clear
Dew Point 34 °F
Humidity 63%
Rainfall in
Snow Depth Not available.
6:48 AM 8:27 PM
Waning Gibbous, 47% visible
METAR KMSO 250853Z AUTO 10006KT 10SM CLR 12/03 A3028 RMK AO2 SLP244 T01220033 58006

10-Day Weather Forecast

Almanac

Astronomy

Aug. 25, 2016 Rise Set
Actual Time
Civil Twilight
Nautical Twilight
Astronomical Twilight
Moon
Length of Visible Light
Length of Day
Tomorrow will be .
, % of the Moon is Illuminated

Today's Extremes

State Highs State Lows

Community

WunderPhotos

Upload Photos

1,934,818 photos uploaded!

WunderBlog® & News

Nearby

Air Quality

  Air Quality AQ Index Pollutant
Not available.

Snow Depth

Station Depth Elevation

Earthquake Activity

City Distance Mag. Time & Date
Minimum magnitude displayed is 2.5.

Coastal Water Temperatures

Place Temperature

Stations

Nearby Weather Stations

Station Location Temp. Windchill Dew Point Humidity Wind Precip. Elev Updated Type
                   

Watches & Warnings

There are currently no watches in effect.